Time;durP1;ratioP1;P1;durP2;ratioP2;P2;SDS_P1;SDS_P2;PMS_P1;PMS_P2;Temp;Humidity;BMP_temperature;BMP_pressure;BME280_temperature;BME280_humidity;BME280_pressure;Samples;Min_cycle;Max_cycle;Signal;HPM_P1;HPM_P2
2023/01/28 00:02:16;;;;;;;15.30;11.63;;;;;;;2.42;91.49;102857.31;5032397;28;20048;-56
2023/01/28 00:04:42;;;;;;;13.95;11.75;;;;;;;2.42;91.00;102861.69;5031746;28;20065;-55
2023/01/28 00:07:08;;;;;;;14.93;11.57;;;;;;;2.40;90.82;102864.34;5020231;28;20060;-55
2023/01/28 00:09:33;;;;;;;13.45;10.85;;;;;;;2.40;91.06;102866.97;5032616;28;20030;-55
2023/01/28 00:11:58;;;;;;;14.48;11.55;;;;;;;2.40;91.38;102864.34;5032010;28;20028;-55
2023/01/28 00:14:24;;;;;;;14.70;11.52;;;;;;;2.39;91.31;102868.69;5023902;28;20502;-56
2023/01/28 00:16:49;;;;;;;12.35;10.93;;;;;;;2.38;90.41;102866.06;5029665;28;20033;-55
2023/01/28 00:19:14;;;;;;;11.82;10.38;;;;;;;2.36;90.34;102870.47;5032077;28;20033;-55
2023/01/28 00:21:40;;;;;;;12.73;10.60;;;;;;;2.35;90.28;102869.63;5031186;28;20045;-55
2023/01/28 00:24:05;;;;;;;12.18;10.35;;;;;;;2.34;89.89;102874.88;5032314;28;20510;-56
2023/01/28 00:26:31;;;;;;;12.85;10.82;;;;;;;2.32;89.90;102877.50;5021506;28;20025;-56
2023/01/28 00:28:56;;;;;;;13.75;11.02;;;;;;;2.32;91.10;102876.66;5031764;28;20030;-55
2023/01/28 00:31:26;;;;;;;14.98;11.70;;;;;;;2.31;90.38;102878.38;5031265;28;20034;-55
2023/01/28 00:33:52;;;;;;;15.13;12.10;;;;;;;2.30;90.67;102871.41;5017834;28;20030;-56
2023/01/28 00:36:19;;;;;;;14.13;11.50;;;;;;;2.30;90.94;102881.91;5029881;28;20029;-56
2023/01/28 00:38:49;;;;;;;11.60;10.38;;;;;;;2.32;91.04;102884.50;5031914;28;20026;-56
2023/01/28 00:41:16;;;;;;;12.48;11.00;;;;;;;2.32;91.50;102889.75;5031543;28;20022;-55
2023/01/28 00:43:43;;;;;;;14.77;11.68;;;;;;;2.33;92.11;102888.84;5021406;28;20058;-56
2023/01/28 00:46:11;;;;;;;12.52;10.88;;;;;;;2.31;92.30;102890.63;5030231;28;20112;-56
2023/01/28 00:48:37;;;;;;;12.68;10.50;;;;;;;2.30;90.87;102889.78;5026800;28;20033;-56
2023/01/28 00:51:03;;;;;;;12.77;10.85;;;;;;;2.29;90.98;102892.41;5031679;28;20037;-55
2023/01/28 00:53:30;;;;;;;12.57;10.73;;;;;;;2.26;89.87;102893.28;5004736;28;20160;-52
2023/01/28 00:55:55;;;;;;;12.73;10.55;;;;;;;2.24;89.86;102897.69;5030487;28;20022;-55
2023/01/28 00:58:23;;;;;;;13.68;10.85;;;;;;;2.25;89.19;102895.91;5025980;28;20022;-55
2023/01/28 01:00:48;;;;;;;14.13;12.23;;;;;;;2.22;89.16;102891.59;5030874;28;20067;-55
2023/01/28 01:03:14;;;;;;;13.75;11.32;;;;;;;2.21;89.12;102893.34;5031475;28;20033;-56
2023/01/28 01:05:39;;;;;;;12.85;10.85;;;;;;;2.20;89.25;102893.38;5031032;28;20029;-55
2023/01/28 01:08:04;;;;;;;13.35;11.27;;;;;;;2.19;89.83;102902.09;5028451;28;20084;-55
2023/01/28 01:10:30;;;;;;;13.60;11.27;;;;;;;2.18;90.74;102905.59;5030797;28;20103;-57
2023/01/28 01:12:56;;;;;;;14.55;11.55;;;;;;;2.18;90.86;102900.34;5034149;28;20373;-55
2023/01/28 01:15:22;;;;;;;11.68;10.07;;;;;;;2.19;91.27;102889.84;5031524;28;20068;-56
2023/01/28 01:17:48;;;;;;;13.10;10.30;;;;;;;2.20;91.36;102890.75;5026795;28;20033;-57
2023/01/28 01:20:19;;;;;;;12.80;10.52;;;;;;;2.19;91.38;102900.34;5034528;28;20025;-55
2023/01/28 01:22:45;;;;;;;12.27;10.40;;;;;;;2.19;91.14;102896.84;5035453;28;20372;-56
2023/01/28 01:25:12;;;;;;;12.63;10.40;;;;;;;2.18;89.75;102901.25;5025271;28;20037;-56
2023/01/28 01:27:38;;;;;;;11.73;9.88;;;;;;;2.17;88.87;102898.63;5035320;28;20029;-56
2023/01/28 01:30:04;;;;;;;13.38;10.88;;;;;;;2.16;88.79;102896.88;5034888;28;20533;-55
2023/01/28 01:32:31;;;;;;;14.35;11.43;;;;;;;2.16;88.75;102886.38;5029757;28;20056;-56
2023/01/28 01:34:56;;;;;;;13.00;10.80;;;;;;;2.16;89.08;102886.38;5034449;28;20025;-55
2023/01/28 01:37:22;;;;;;;13.50;10.70;;;;;;;2.14;89.20;102881.16;5035114;28;20031;-57
2023/01/28 01:39:47;;;;;;;13.60;11.05;;;;;;;2.14;89.15;102889.03;5031619;28;20048;-56
2023/01/28 01:42:14;;;;;;;13.45;11.10;;;;;;;2.14;89.87;102885.53;5027888;28;20087;-56
2023/01/28 01:44:48;;;;;;;13.90;11.38;;;;;;;2.13;89.65;102889.03;5032731;28;20025;-55
2023/01/28 01:47:15;;;;;;;13.30;10.77;;;;;;;2.11;88.46;102891.66;5034616;28;20025;-56
2023/01/28 01:49:41;;;;;;;15.32;12.68;;;;;;;2.10;89.08;102889.06;5031472;28;20044;-56
2023/01/28 01:52:14;;;;;;;13.43;11.60;;;;;;;2.11;88.79;102899.53;5029241;28;20120;-56
2023/01/28 01:54:43;;;;;;;13.23;10.95;;;;;;;2.11;88.39;102899.53;5034566;28;20065;-55
2023/01/28 01:57:13;;;;;;;16.60;11.40;;;;;;;2.12;88.70;102895.19;5028852;28;20543;-57
2023/01/28 01:59:41;;;;;;;13.20;10.68;;;;;;;2.09;89.21;102898.69;5033407;28;20033;-57
2023/01/28 02:02:10;;;;;;;14.80;11.55;;;;;;;2.07;88.72;102887.34;5031786;28;20104;-55
2023/01/28 02:04:38;;;;;;;14.17;11.33;;;;;;;2.08;89.09;102901.31;5034533;28;20035;-56
2023/01/28 02:07:05;;;;;;;13.10;11.15;;;;;;;2.09;89.94;102900.44;5033792;28;20387;-54
2023/01/28 02:09:35;;;;;;;13.75;11.40;;;;;;;2.08;90.08;102901.31;5032535;28;20472;-55
2023/01/28 02:12:09;;;;;;;13.07;11.05;;;;;;;2.06;90.67;102903.94;5034084;28;20882;-55
2023/01/28 02:14:40;;;;;;;13.82;11.50;;;;;;;2.06;90.78;102900.47;5034076;28;20053;-55
2023/01/28 02:17:06;;;;;;;13.27;11.00;;;;;;;2.07;90.83;102912.69;5026446;28;20033;-56
2023/01/28 02:19:43;;;;;;;13.52;11.20;;;;;;;2.07;91.23;102899.59;5033807;28;20438;-57
2023/01/28 02:22:44;;;;;;;13.05;10.70;;;;;;;2.07;90.51;102907.44;5031953;28;20045;-57
2023/01/28 02:25:15;;;;;;;13.93;11.35;;;;;;;2.06;89.57;102911.81;5005393;28;20049;-56
2023/01/28 02:28:08;;;;;;;15.10;12.23;;;;;;;2.06;90.26;102900.47;5032991;28;20029;-56
2023/01/28 02:30:38;;;;;;;14.15;11.73;;;;;;;2.02;88.18;102897.84;5022498;28;20059;-55
2023/01/28 02:33:17;;;;;;;13.32;11.40;;;;;;;2.01;89.59;102893.47;5033560;28;20033;-57
2023/01/28 02:35:52;;;;;;;13.73;11.55;;;;;;;2.01;89.66;102898.72;5032888;28;20044;-57
2023/01/28 02:38:23;;;;;;;15.63;11.50;;;;;;;1.98;88.22;102898.78;5024197;28;20143;-56
2023/01/28 02:41:04;;;;;;;12.65;10.85;;;;;;;1.98;88.83;102904.03;5033452;28;20032;-56
2023/01/28 02:43:32;;;;;;;14.05;11.88;;;;;;;1.98;88.48;102896.16;5030327;28;20049;-55
2023/01/28 02:48:45;;;;;;;13.45;11.30;;;;;;;1.97;89.25;102889.16;5022363;28;20518;-52
2023/01/28 02:51:30;;;;;;;14.20;11.82;;;;;;;1.99;90.19;102890.00;5032355;28;20029;-56
2023/01/28 02:54:02;;;;;;;13.93;10.95;;;;;;;1.98;89.61;102909.25;5033077;28;20030;-56
2023/01/28 02:56:41;;;;;;;13.00;10.95;;;;;;;1.97;90.28;102906.66;5033020;28;20029;-56
2023/01/28 02:59:46;;;;;;;13.68;10.90;;;;;;;1.98;90.01;102903.13;5024383;28;20072;-56
2023/01/28 03:02:22;;;;;;;12.15;9.73;;;;;;;1.93;89.41;102905.81;5010145;28;20583;-56
2023/01/28 03:05:06;;;;;;;11.35;9.88;;;;;;;1.91;89.66;102899.69;5033262;28;20029;-56
2023/01/28 03:07:35;;;;;;;13.95;10.30;;;;;;;1.91;88.46;102911.94;5030148;28;20033;-54
2023/01/28 03:10:04;;;;;;;13.15;10.75;;;;;;;1.89;88.94;102911.94;5032908;28;20021;-55
2023/01/28 03:38:22;;;;;;;10.68;8.80;;;;;;;1.80;86.62;102922.50;5026868;28;20055;-55
2023/01/28 03:40:54;;;;;;;10.10;8.77;;;;;;;1.79;85.91;102908.50;5031680;28;20104;-57
2023/01/28 03:43:19;;;;;;;10.40;9.30;;;;;;;1.78;87.09;102917.25;5032251;28;20045;-57
2023/01/28 03:45:45;;;;;;;10.73;9.07;;;;;;;1.79;85.60;102918.97;5021768;28;20048;-55
2023/01/28 03:48:12;;;;;;;11.45;9.38;;;;;;;1.80;87.05;102919.88;5025245;28;20029;-56
2023/01/28 03:50:38;;;;;;;11.27;9.52;;;;;;;1.78;86.77;102912.03;5031741;28;20025;-54
2023/01/28 03:53:13;;;;;;;11.98;10.05;;;;;;;1.79;86.73;102905.88;5014665;28;20071;-55
2023/01/28 03:55:38;;;;;;;10.52;9.18;;;;;;;1.77;87.06;102918.13;5024575;28;20057;-57
2023/01/28 03:58:06;;;;;;;9.88;8.82;;;;;;;1.78;86.86;102921.59;5031887;28;20055;-56
2023/01/28 04:00:32;;;;;;;11.82;10.10;;;;;;;1.79;88.64;102928.59;5028121;28;20036;-56
2023/01/28 04:02:57;;;;;;;11.77;9.68;;;;;;;1.77;88.11;102919.88;5031933;28;20476;-56
2023/01/28 04:05:24;;;;;;;11.32;10.13;;;;;;;1.75;88.58;102925.13;5032149;28;20040;-56
2023/01/28 04:07:50;;;;;;;13.43;11.07;;;;;;;1.73;90.00;102926.88;5031903;28;20021;-56
2023/01/28 04:10:15;;;;;;;12.68;10.70;;;;;;;1.73;90.08;102937.34;5025862;28;20518;-56
2023/01/28 04:12:41;;;;;;;13.88;11.05;;;;;;;1.73;90.38;102937.34;5032117;28;20026;-56
2023/01/28 04:15:14;;;;;;;13.07;10.93;;;;;;;1.73;90.46;102942.59;5030065;28;20072;-56
2023/01/28 04:17:43;;;;;;;13.77;11.18;;;;;;;1.73;90.99;102936.47;5031757;28;20483;-57
2023/01/28 04:20:09;;;;;;;14.80;10.93;;;;;;;1.74;90.65;102943.47;5032094;28;20030;-56
2023/01/28 04:22:34;;;;;;;14.52;11.55;;;;;;;1.73;91.05;102941.72;5031053;28;20083;-56
2023/01/28 04:24:59;;;;;;;14.45;11.18;;;;;;;1.74;91.16;102940.84;5029863;28;20025;-56
2023/01/28 04:27:25;;;;;;;13.43;11.80;;;;;;;1.73;91.71;102942.59;5031660;28;20031;-57
2023/01/28 04:29:50;;;;;;;14.80;12.38;;;;;;;1.73;91.72;102939.09;5031902;28;20021;-57
2023/01/28 04:32:15;;;;;;;14.80;11.90;;;;;;;1.73;91.37;102936.47;5029914;28;20026;-55
2023/01/28 04:34:40;;;;;;;15.13;11.85;;;;;;;1.73;91.95;102936.47;5021391;28;20472;-55
2023/01/28 04:37:06;;;;;;;16.25;11.90;;;;;;;1.72;92.12;102938.25;5031434;28;20037;-57
2023/01/28 04:39:31;;;;;;;15.07;12.07;;;;;;;1.73;92.20;102934.72;5025323;28;20484;-56
2023/01/28 04:41:56;;;;;;;15.65;12.30;;;;;;;1.72;92.14;102926.91;5027582;28;20026;-57
2023/01/28 04:44:21;;;;;;;15.45;12.43;;;;;;;1.71;91.24;102935.63;5031298;28;20052;-56
2023/01/28 04:46:47;;;;;;;14.95;11.90;;;;;;;1.72;91.98;102930.38;5031568;28;20790;-57
2023/01/28 04:49:12;;;;;;;19.08;12.73;;;;;;;1.71;91.91;102935.63;5031968;28;20037;-56
2023/01/28 04:51:37;;;;;;;17.05;13.35;;;;;;;1.70;92.07;102929.53;5032883;28;20475;-55
2023/01/28 04:54:02;;;;;;;15.88;12.68;;;;;;;1.71;92.46;102941.72;5026813;28;20087;-57
2023/01/28 04:56:28;;;;;;;15.05;12.57;;;;;;;1.70;92.56;102933.88;5035527;28;20037;-55
2023/01/28 04:58:53;;;;;;;16.77;13.02;;;;;;;1.70;92.26;102939.13;5035926;28;20100;-56
2023/01/28 05:01:18;;;;;;;17.13;12.88;;;;;;;1.70;92.59;102939.13;5025100;28;20482;-56
2023/01/28 05:03:44;;;;;;;15.70;12.27;;;;;;;1.71;92.17;102943.50;5035587;28;20023;-53
2023/01/28 05:06:09;;;;;;;17.08;12.10;;;;;;;1.70;92.46;102947.88;5035120;28;20029;-54
2023/01/28 05:08:34;;;;;;;16.92;13.25;;;;;;;1.69;92.39;102938.25;5035274;28;20021;-55
2023/01/28 05:10:59;;;;;;;15.80;12.80;;;;;;;1.70;92.67;102944.34;5031373;28;20117;-56
2023/01/28 05:13:25;;;;;;;16.40;12.60;;;;;;;1.69;93.11;102943.50;5035217;28;20028;-54
2023/01/28 05:15:52;;;;;;;18.35;12.73;;;;;;;1.66;92.61;102947.00;5032365;28;20076;-55
2023/01/28 05:18:17;;;;;;;16.48;12.85;;;;;;;1.66;92.26;102944.38;5025962;28;20091;-56
2023/01/28 05:20:43;;;;;;;18.75;12.15;;;;;;;1.65;92.02;102952.25;5035151;28;20025;-56
2023/01/28 05:23:08;;;;;;;16.67;12.88;;;;;;;1.64;91.90;102947.91;5029965;28;20527;-52
2023/01/28 05:25:33;;;;;;;15.20;12.13;;;;;;;1.62;92.27;102945.28;5030158;28;20037;-55
2023/01/28 05:27:58;;;;;;;17.88;13.05;;;;;;;1.64;92.35;102945.28;5038469;28;20403;-55
2023/01/28 05:30:24;;;;;;;16.95;13.05;;;;;;;1.63;92.49;102946.13;5029719;28;20033;-55
2023/01/28 05:32:54;;;;;;;17.38;12.10;;;;;;;1.63;92.20;102943.53;5030901;28;20566;-55
2023/01/28 05:35:19;;;;;;;16.98;12.07;;;;;;;1.62;92.52;102941.81;5034503;28;20037;-56
2023/01/28 05:37:44;;;;;;;15.35;12.02;;;;;;;1.59;92.40;102934.81;5034838;28;20112;-55
2023/01/28 05:40:10;;;;;;;15.52;12.52;;;;;;;1.58;92.64;102940.94;5032959;28;20595;-57
2023/01/28 05:42:35;;;;;;;16.60;12.35;;;;;;;1.56;92.55;102932.22;5023200;28;20045;-55
2023/01/28 05:45:00;;;;;;;16.98;12.63;;;;;;;1.56;92.42;102933.97;5023675;28;20033;-57
2023/01/28 05:47:26;;;;;;;15.27;11.65;;;;;;;1.54;92.14;102927.88;5032143;28;20056;-56
2023/01/28 05:49:51;;;;;;;15.55;12.25;;;;;;;1.53;92.19;102926.97;5034616;28;20022;-56
2023/01/28 05:52:16;;;;;;;16.25;12.32;;;;;;;1.53;91.20;102934.84;5034184;28;20071;-52
2023/01/28 05:54:42;;;;;;;14.93;11.90;;;;;;;1.52;91.89;102932.25;5024233;28;20116;-56
2023/01/28 05:57:07;;;;;;;16.33;11.40;;;;;;;1.50;91.50;102937.50;5032840;28;20369;-55
2023/01/28 05:59:32;;;;;;;15.68;11.68;;;;;;;1.48;91.26;102941.84;5028594;28;20056;-55
2023/01/28 06:01:57;;;;;;;15.68;10.98;;;;;;;1.48;91.13;102944.47;5034384;28;20018;-57
2023/01/28 06:04:23;;;;;;;13.43;11.02;;;;;;;1.46;90.22;102949.72;5031962;28;20112;-55
2023/01/28 06:06:48;;;;;;;14.82;10.43;;;;;;;1.44;88.81;102943.63;5034133;28;20490;-56
2023/01/28 06:09:13;;;;;;;17.15;10.98;;;;;;;1.43;88.85;102951.47;5034039;28;20040;-56
2023/01/28 06:11:39;;;;;;;12.40;10.35;;;;;;;1.43;88.85;102952.38;5023908;28;20026;-56
2023/01/28 06:14:04;;;;;;;11.98;10.10;;;;;;;1.42;88.89;102955.84;5034094;28;20018;-56
2023/01/28 06:16:29;;;;;;;12.63;9.85;;;;;;;1.40;87.63;102951.47;5031119;28;20033;-52
2023/01/28 06:18:54;;;;;;;11.63;9.80;;;;;;;1.35;86.54;102948.91;5033938;28;20031;-57
2023/01/28 06:21:20;;;;;;;12.45;9.70;;;;;;;1.34;86.92;102954.16;5033865;28;20434;-56
2023/01/28 06:23:45;;;;;;;10.55;8.90;;;;;;;1.34;85.88;102948.91;5036920;28;20025;-56
2023/01/28 06:26:10;;;;;;;13.02;9.27;;;;;;;1.34;85.54;102955.00;5032648;28;20037;-57
2023/01/28 06:28:36;;;;;;;10.73;9.63;;;;;;;1.33;84.44;102948.03;5033770;28;20021;-58
2023/01/28 06:31:01;;;;;;;13.40;9.50;;;;;;;1.34;85.23;102948.91;5033788;28;20026;-56
2023/01/28 06:33:27;;;;;;;11.55;9.23;;;;;;;1.33;84.95;102953.25;5031430;28;20086;-55
2023/01/28 06:35:53;;;;;;;11.02;9.63;;;;;;;1.33;85.95;102952.41;5033465;28;20014;-56
2023/01/28 06:38:18;;;;;;;11.75;9.38;;;;;;;1.33;86.33;102955.88;5031699;28;20538;-55
2023/01/28 06:40:43;;;;;;;12.00;9.18;;;;;;;1.32;85.48;102961.16;5033318;28;20081;-55
2023/01/28 06:43:09;;;;;;;11.82;9.95;;;;;;;1.31;86.10;102956.78;5024391;28;20045;-56
2023/01/28 06:45:34;;;;;;;10.82;9.18;;;;;;;1.32;86.55;102966.38;5032236;28;20426;-56
2023/01/28 06:47:59;;;;;;;11.90;9.60;;;;;;;1.33;86.09;102965.50;5027605;28;20033;-56
2023/01/28 06:50:25;;;;;;;13.68;10.27;;;;;;;1.32;86.66;102974.25;5031988;28;20063;-55
2023/01/28 06:52:50;;;;;;;13.35;10.70;;;;;;;1.31;85.96;102962.88;5033231;28;20391;-56
2023/01/28 06:55:15;;;;;;;14.60;11.20;;;;;;;1.31;86.04;102964.63;5033153;28;20539;-55
2023/01/28 06:57:41;;;;;;;13.18;10.57;;;;;;;1.28;86.48;102966.38;5026900;28;20041;-55
2023/01/28 07:00:09;;;;;;;13.73;10.68;;;;;;;1.29;86.80;102972.50;5031848;28;20026;-55
2023/01/28 07:02:35;;;;;;;13.80;10.63;;;;;;;1.29;86.53;102962.88;5039814;28;20113;-57
2023/01/28 07:05:01;;;;;;;13.77;11.13;;;;;;;1.29;86.39;102968.09;5030528;28;20025;-55
2023/01/28 07:07:26;;;;;;;13.50;10.80;;;;;;;1.31;86.67;102972.47;5025125;28;20029;-57
2023/01/28 07:09:52;;;;;;;13.98;10.68;;;;;;;1.31;86.55;102982.97;5032700;28;20044;-57
2023/01/28 07:12:17;;;;;;;13.27;10.80;;;;;;;1.27;86.18;102980.34;5033469;28;20030;-57
2023/01/28 07:14:42;;;;;;;19.52;11.80;;;;;;;1.27;86.36;102976.88;5028937;28;20029;-56
2023/01/28 07:17:08;;;;;;;15.05;11.23;;;;;;;1.26;85.06;102978.59;5028376;28;20113;-58
2023/01/28 07:19:33;;;;;;;14.00;11.18;;;;;;;1.25;85.91;102983.81;5032838;28;20040;-56
2023/01/28 07:22:01;;;;;;;15.10;11.48;;;;;;;1.24;85.96;102990.81;5032503;28;20036;-57
2023/01/28 07:24:27;;;;;;;14.00;11.07;;;;;;;1.24;85.75;102982.97;5032819;28;20028;-56
2023/01/28 07:26:52;;;;;;;14.13;11.32;;;;;;;1.23;85.69;102996.94;5025440;28;20021;-55
2023/01/28 07:29:17;;;;;;;15.30;11.57;;;;;;;1.23;84.25;102993.44;5031996;28;20022;-57
2023/01/28 07:31:42;;;;;;;15.60;11.10;;;;;;;1.23;84.46;103001.28;5028149;28;20037;-56
2023/01/28 07:34:08;;;;;;;15.40;12.07;;;;;;;1.22;84.41;103007.44;5032139;28;20030;-56
2023/01/28 07:36:33;;;;;;;15.02;11.88;;;;;;;1.19;83.36;103010.03;5029272;28;20030;-57
2023/01/28 07:38:59;;;;;;;14.35;11.80;;;;;;;1.18;84.06;103011.75;5029347;28;20040;-58
2023/01/28 07:41:24;;;;;;;15.45;11.18;;;;;;;1.19;84.88;103008.28;5021112;28;20029;-57
2023/01/28 07:43:49;;;;;;;16.63;12.35;;;;;;;1.19;84.85;103007.44;5026840;28;20038;-56
2023/01/28 07:46:14;;;;;;;15.98;11.98;;;;;;;1.20;85.37;103011.75;5030772;28;20037;-58
2023/01/28 07:48:40;;;;;;;17.48;12.20;;;;;;;1.20;84.73;103011.75;5030182;28;20045;-57
2023/01/28 07:51:05;;;;;;;15.50;12.43;;;;;;;1.19;84.04;103008.28;5025741;28;20084;-57
2023/01/28 07:53:31;;;;;;;17.58;12.25;;;;;;;1.18;84.33;103006.53;5019021;28;20045;-57
2023/01/28 07:56:00;;;;;;;14.95;11.82;;;;;;;1.19;84.57;103016.13;5019977;28;20108;-58
2023/01/28 07:58:26;;;;;;;16.42;12.48;;;;;;;1.19;84.77;103024.00;5026468;28;20029;-58
2023/01/28 08:00:58;;;;;;;15.55;11.98;;;;;;;1.19;84.98;103024.00;5020794;28;20032;-57
2023/01/28 08:03:24;;;;;;;15.32;11.93;;;;;;;1.18;84.85;103022.25;5020674;28;20037;-56
2023/01/28 08:05:52;;;;;;;17.08;12.63;;;;;;;1.17;85.19;103017.91;5020755;28;20395;-57
2023/01/28 08:08:18;;;;;;;15.90;12.63;;;;;;;1.18;84.29;103013.53;5019350;28;20060;-58
2023/01/28 08:10:44;;;;;;;14.88;11.77;;;;;;;1.17;83.96;103022.28;5019993;28;20034;-58
2023/01/28 08:13:11;;;;;;;14.23;11.05;;;;;;;1.15;83.79;103021.38;5020239;28;20056;-55
2023/01/28 08:15:36;;;;;;;15.07;12.30;;;;;;;1.16;84.19;103025.75;5021678;28;20438;-57
2023/01/28 08:18:03;;;;;;;15.43;12.13;;;;;;;1.16;83.44;103031.84;5018672;28;20079;-56
2023/01/28 08:20:29;;;;;;;15.38;12.43;;;;;;;1.18;83.76;103039.69;5024924;28;20034;-55
2023/01/28 08:23:04;;;;;;;14.90;12.02;;;;;;;1.19;81.93;103046.69;5028829;28;20439;-54
2023/01/28 08:25:29;;;;;;;23.23;11.45;;;;;;;1.18;82.78;103047.56;5028610;28;20037;-55
2023/01/28 08:27:55;;;;;;;16.02;11.65;;;;;;;1.18;82.36;103053.66;5021873;28;20108;-58
2023/01/28 08:30:20;;;;;;;19.90;12.63;;;;;;;1.20;84.05;103056.25;5019809;28;20091;-57
2023/01/28 08:32:45;;;;;;;16.25;11.77;;;;;;;1.22;83.30;103044.94;5014105;28;20514;-58
2023/01/28 08:35:10;;;;;;;14.88;11.40;;;;;;;1.22;82.54;103051.94;5017298;28;20077;-58
2023/01/28 08:37:36;;;;;;;16.30;12.02;;;;;;;1.21;81.77;103055.41;5018991;28;20029;-57
2023/01/28 08:40:01;;;;;;;15.07;10.98;;;;;;;1.22;82.42;103054.53;5019088;28;20042;-58
2023/01/28 08:42:26;;;;;;;14.45;11.75;;;;;;;1.22;83.25;103057.16;5017159;28;20045;-58
2023/01/28 08:44:52;;;;;;;16.45;11.93;;;;;;;1.23;83.65;103062.41;5013030;28;20133;-58
2023/01/28 08:47:18;;;;;;;16.90;12.63;;;;;;;1.26;83.31;103069.34;5019358;28;20132;-58
2023/01/28 08:49:43;;;;;;;13.90;11.50;;;;;;;1.27;83.74;103064.13;5018004;28;20563;-57
2023/01/28 08:52:09;;;;;;;16.73;12.35;;;;;;;1.31;84.53;103062.34;5017255;28;20049;-58
2023/01/28 08:54:35;;;;;;;16.23;12.82;;;;;;;1.34;83.75;103069.34;5023862;28;20041;-58
2023/01/28 08:57:00;;;;;;;16.05;11.98;;;;;;;1.35;82.69;103069.34;5027496;28;20032;-57
2023/01/28 08:59:26;;;;;;;19.23;11.48;;;;;;;1.37;82.97;103067.59;5030032;28;20071;-59
2023/01/28 09:01:51;;;;;;;16.63;11.88;;;;;;;1.38;83.93;103071.06;5030900;28;20497;-57
2023/01/28 09:04:16;;;;;;;15.60;12.27;;;;;;;1.40;83.07;103078.06;5026576;28;20041;-58
2023/01/28 09:06:41;;;;;;;16.30;11.77;;;;;;;1.41;82.90;103082.41;5026478;28;20029;-57
2023/01/28 09:09:07;;;;;;;14.88;11.15;;;;;;;1.45;83.84;103075.44;5027570;28;20037;-59
2023/01/28 09:11:32;;;;;;;15.18;11.77;;;;;;;1.45;82.93;103076.31;5020936;28;20032;-58
2023/01/28 09:13:57;;;;;;;15.38;11.70;;;;;;;1.47;83.15;103084.16;5017076;28;20044;-56
2023/01/28 09:16:23;;;;;;;16.70;12.65;;;;;;;1.47;82.29;103085.03;5021834;28;20086;-57
2023/01/28 09:18:50;;;;;;;13.68;11.45;;;;;;;1.49;81.86;103082.41;5023014;28;20033;-54
2023/01/28 09:21:15;;;;;;;15.85;12.38;;;;;;;1.51;82.75;103091.13;5014537;28;20025;-57
2023/01/28 09:23:41;;;;;;;15.80;11.88;;;;;;;1.53;82.94;103093.72;5014663;28;20472;-58
2023/01/28 09:26:06;;;;;;;14.80;11.80;;;;;;;1.54;81.72;103088.50;5016473;28;20024;-57
2023/01/28 09:28:32;;;;;;;16.10;12.45;;;;;;;1.53;81.85;103091.13;5015062;28;20335;-58
2023/01/28 09:31:08;;;;;;;15.63;11.75;;;;;;;1.55;83.19;103081.50;5015213;28;20357;-58
2023/01/28 09:33:36;;;;;;;15.05;11.95;;;;;;;1.53;80.68;103097.22;5017413;28;20171;-57
2023/01/28 09:36:03;;;;;;;15.27;12.48;;;;;;;1.52;80.52;103103.34;5029300;28;20029;-58
2023/01/28 09:38:29;;;;;;;17.98;12.65;;;;;;;1.53;81.30;103109.44;5031664;28;20471;-58
2023/01/28 09:40:55;;;;;;;15.63;12.23;;;;;;;1.51;80.04;103117.31;5032734;28;20105;-56
2023/01/28 09:43:39;;;;;;;16.70;13.55;;;;;;;1.54;81.26;103108.59;5028626;28;20133;-58
2023/01/28 09:46:09;;;;;;;16.30;12.23;;;;;;;1.54;82.29;103117.31;5033048;28;20124;-58
2023/01/28 09:48:39;;;;;;;14.55;12.20;;;;;;;1.54;82.33;103111.22;5019843;28;20036;-57
2023/01/28 09:51:16;;;;;;;14.77;12.18;;;;;;;1.57;82.39;103103.34;5019569;28;20022;-58
2023/01/28 09:53:47;;;;;;;15.50;12.73;;;;;;;1.58;81.68;103108.59;5020394;28;20029;-57
2023/01/28 09:56:25;;;;;;;16.45;13.45;;;;;;;1.61;82.07;103108.53;5032260;28;20037;-57
2023/01/28 09:58:51;;;;;;;16.02;12.88;;;;;;;1.63;82.70;103119.03;5015106;28;20018;-56
2023/01/28 10:01:19;;;;;;;16.17;12.90;;;;;;;1.65;82.09;103112.06;5032226;28;20040;-56
2023/01/28 10:04:39;;;;;;;17.35;13.20;;;;;;;1.67;82.58;103113.78;5023600;28;20387;-56
2023/01/28 10:07:17;;;;;;;14.45;12.57;;;;;;;1.66;81.80;103121.63;4934930;28;20050;-57
2023/01/28 10:09:45;;;;;;;16.05;13.23;;;;;;;1.67;81.92;103134.72;4940304;28;20041;-56
2023/01/28 10:12:34;;;;;;;14.68;12.55;;;;;;;1.69;81.40;103136.50;4987264;28;20034;-57
2023/01/28 10:15:18;;;;;;;;;;;;;;;1.77;82.98;103132.09;5016866;28;20025;-56
2023/01/28 10:17:51;;;;;;;14.63;12.18;;;;;;;1.72;81.55;103133.88;5012877;28;20067;-53
2023/01/28 10:20:24;;;;;;;12.93;11.57;;;;;;;1.72;80.69;103139.09;5013109;28;20061;-56
2023/01/28 10:23:03;;;;;;;14.57;12.07;;;;;;;1.69;80.25;103142.59;5015617;28;20373;-56
2023/01/28 10:25:30;;;;;;;13.25;11.02;;;;;;;1.67;79.77;103134.72;5017089;28;20527;-56
2023/01/28 10:27:55;;;;;;;15.00;11.45;;;;;;;1.71;80.25;103142.59;5015230;28;20113;-57
2023/01/28 10:30:28;;;;;;;13.73;11.30;;;;;;;1.68;79.90;103140.84;5014444;28;20112;-57
2023/01/28 10:33:21;;;;;;;15.30;11.82;;;;;;;1.67;79.70;103147.84;5013614;28;20052;-57
2023/01/28 10:35:47;;;;;;;12.70;10.98;;;;;;;1.66;81.03;103132.97;5014170;28;20034;-54
2023/01/28 10:38:16;;;;;;;12.20;10.88;;;;;;;1.66;80.32;103126.88;5018731;28;20033;-56
2023/01/28 10:40:42;;;;;;;12.93;10.82;;;;;;;1.66;79.37;103126.88;5013011;28;20495;-56
2023/01/28 10:43:08;;;;;;;13.38;10.75;;;;;;;1.66;79.85;103135.59;5013715;28;20050;-57
2023/01/28 10:46:03;;;;;;;13.70;11.57;;;;;;;1.70;80.11;103125.13;5012505;28;20081;-54
2023/01/28 10:48:33;;;;;;;12.68;10.93;;;;;;;1.68;79.83;103122.50;5020455;28;20052;-55
2023/01/28 10:51:03;;;;;;;12.60;10.57;;;;;;;1.69;79.04;103123.41;5026147;28;20095;-57
2023/01/28 10:53:35;;;;;;;;;;;;;;;1.77;81.04;103122.50;5011371;28;20120;-57
2023/01/28 10:56:04;;;;;;;13.60;11.07;;;;;;;1.73;79.39;103128.59;5016664;28;19998;-54
2023/01/28 10:58:33;;;;;;;14.48;10.85;;;;;;;1.76;80.10;103122.50;5012917;28;20467;-56
2023/01/28 11:01:01;;;;;;;14.50;10.57;;;;;;;1.77;80.91;103116.38;5012764;28;20469;-57
2023/01/28 11:03:29;;;;;;;13.18;10.82;;;;;;;1.78;80.08;103111.16;5015194;28;20483;-55
2023/01/28 11:05:56;;;;;;;12.18;10.38;;;;;;;1.79;79.80;103127.72;5017957;28;20471;-56
2023/01/28 11:08:23;;;;;;;13.23;11.23;;;;;;;1.81;80.02;103137.31;5013410;28;20040;-55
2023/01/28 11:10:50;;;;;;;13.02;10.85;;;;;;;1.78;79.11;103128.59;5024230;28;20032;-56
2023/01/28 11:13:24;;;;;;;13.10;10.77;;;;;;;1.75;77.96;103129.50;5031691;28;20106;-55
2023/01/28 11:16:04;;;;;;;13.63;10.40;;;;;;;1.73;79.14;103120.75;5028695;28;20431;-55
2023/01/28 11:18:33;;;;;;;14.45;11.48;;;;;;;1.75;79.96;103119.00;5031160;28;20053;-54
2023/01/28 11:21:02;;;;;;;13.77;11.15;;;;;;;1.79;80.96;103115.50;5031341;28;20021;-57
2023/01/28 11:23:32;;;;;;;17.40;11.55;;;;;;;1.82;81.26;103109.38;5029501;28;20462;-56
2023/01/28 11:26:35;;;;;;;15.13;11.10;;;;;;;1.90;81.08;103110.22;5029594;28;20035;-57
2023/01/28 11:29:01;;;;;;;15.43;11.13;;;;;;;1.91;80.75;103104.09;4951040;28;20054;-53
2023/01/28 11:31:27;;;;;;;14.43;10.75;;;;;;;1.93;79.95;103099.72;5016528;28;20049;-57
2023/01/28 11:33:58;;;;;;;15.60;11.32;;;;;;;1.97;80.68;103088.34;5025619;28;20034;-57
2023/01/28 11:36:29;;;;;;;13.23;10.82;;;;;;;2.00;79.79;103090.97;5032112;28;20434;-55
2023/01/28 11:39:00;;;;;;;13.73;11.07;;;;;;;2.04;80.51;103084.81;5019462;28;20045;-57
2023/01/28 11:41:37;;;;;;;11.50;8.82;;;;;;;2.07;77.75;103080.47;5014806;28;20026;-57
2023/01/28 11:44:18;;;;;;;11.90;8.80;;;;;;;2.10;79.97;103081.31;5017867;28;20103;-57
2023/01/28 11:47:04;;;;;;;10.75;9.00;;;;;;;2.16;78.21;103080.38;5014817;28;20471;-57
2023/01/28 11:49:32;;;;;;;12.80;10.40;;;;;;;2.16;79.66;103075.16;5013533;28;20369;-56
2023/01/28 11:52:30;;;;;;;14.70;11.13;;;;;;;2.21;80.35;103053.28;5025782;28;20087;-57
2023/01/28 11:55:22;;;;;;;13.25;10.30;;;;;;;2.28;80.34;103053.22;5011957;28;20126;-56